createdAt,value
2018-09-17T00:00:27.871Z,4.67
2018-09-17T00:02:55.673Z,3.93
2018-09-17T00:05:24.066Z,4.57
2018-09-17T00:07:52.066Z,4.20
2018-09-17T00:10:19.851Z,4.57
2018-09-17T00:12:47.996Z,5.00
2018-09-17T00:15:15.849Z,3.83
2018-09-17T00:17:43.774Z,4.63
2018-09-17T00:20:11.646Z,4.40
2018-09-17T00:22:39.460Z,4.33
2018-09-17T00:25:07.531Z,4.00
2018-09-17T00:27:35.492Z,4.33
2018-09-17T00:30:04.108Z,4.00
2018-09-17T00:32:31.984Z,3.73
2018-09-17T00:34:59.734Z,4.47
2018-09-17T00:37:27.573Z,4.23
2018-09-17T00:39:56.306Z,3.60
2018-09-17T00:42:24.344Z,4.33
2018-09-17T00:44:52.111Z,4.03
2018-09-17T00:47:19.900Z,4.00
2018-09-17T00:49:47.748Z,3.90
2018-09-17T00:52:15.872Z,4.10
2018-09-17T00:54:43.673Z,3.80
2018-09-17T00:57:11.438Z,4.13
2018-09-17T00:59:39.302Z,3.53
2018-09-17T01:02:07.524Z,4.10
2018-09-17T01:04:35.438Z,4.07
2018-09-17T01:07:03.491Z,3.80
2018-09-17T01:09:37.239Z,3.87
2018-09-17T01:12:05.188Z,4.40
2018-09-17T01:14:32.898Z,3.70
2018-09-17T01:17:00.838Z,4.47
2018-09-17T01:19:28.687Z,4.27
2018-09-17T01:21:56.593Z,4.17
2018-09-17T01:24:24.534Z,3.90
2018-09-17T01:26:52.370Z,4.53
2018-09-17T01:29:20.091Z,4.07
2018-09-17T01:31:47.933Z,4.40
2018-09-17T01:34:15.616Z,4.30
2018-09-17T01:36:43.337Z,4.60
2018-09-17T01:39:11.896Z,4.07
2018-09-17T01:41:39.779Z,4.57
2018-09-17T01:44:07.864Z,4.03
2018-09-17T01:46:36.779Z,4.00
2018-09-17T01:49:05.368Z,4.40
2018-09-17T01:51:34.835Z,3.80
2018-09-17T01:54:02.627Z,4.50
2018-09-17T01:56:30.460Z,4.30
2018-09-17T01:58:58.187Z,4.50
2018-09-17T02:01:26.046Z,3.93
2018-09-17T02:03:53.993Z,4.53
2018-09-17T02:06:21.855Z,4.47
2018-09-17T02:08:49.715Z,4.47
2018-09-17T02:11:17.579Z,4.70
2018-09-17T02:13:45.550Z,4.83
2018-09-17T02:16:13.282Z,4.50
2018-09-17T02:18:41.007Z,4.47
2018-09-17T02:21:09.066Z,3.87
2018-09-17T02:23:37.082Z,4.45
2018-09-17T02:26:05.218Z,4.53
2018-09-17T02:28:33.028Z,4.30
2018-09-17T02:31:01.233Z,4.70
2018-09-17T02:33:29.008Z,4.75
2018-09-17T02:35:56.874Z,4.80
2018-09-17T02:38:25.064Z,4.30
2018-09-17T02:40:52.966Z,4.20
2018-09-17T02:43:20.742Z,4.30
2018-09-17T02:45:48.626Z,4.70
2018-09-17T02:48:16.427Z,4.05
2018-09-17T02:50:44.217Z,4.58
2018-09-17T02:53:12.012Z,4.40
2018-09-17T02:55:43.868Z,4.10
2018-09-17T02:58:11.775Z,4.40
2018-09-17T03:00:39.615Z,5.13
2018-09-17T03:03:07.455Z,4.10
2018-09-17T03:05:35.441Z,4.78
2018-09-17T03:08:03.372Z,4.73
2018-09-17T03:10:31.485Z,4.30
2018-09-17T03:12:59.306Z,5.53
2018-09-17T03:15:38.455Z,4.50
2018-09-17T03:18:06.352Z,4.80
2018-09-17T03:20:34.239Z,4.10
2018-09-17T03:23:02.267Z,4.60
2018-09-17T03:25:30.284Z,5.10
2018-09-17T03:27:59.349Z,4.60
2018-09-17T03:30:27.271Z,4.70
2018-09-17T03:32:55.228Z,5.05
2018-09-17T03:35:23.198Z,4.62
2018-09-17T03:37:51.075Z,5.42
2018-09-17T03:40:18.941Z,4.97
2018-09-17T03:42:46.847Z,4.53
2018-09-17T03:45:14.767Z,5.53
2018-09-17T03:47:42.624Z,4.80
2018-09-17T03:50:10.573Z,4.80
2018-09-17T03:52:38.370Z,4.90
2018-09-17T03:55:06.315Z,4.75
2018-09-17T03:57:34.127Z,4.80
2018-09-17T04:00:02.322Z,5.00
2018-09-17T04:02:30.465Z,4.35
2018-09-17T04:04:58.228Z,5.35
2018-09-17T04:07:25.892Z,4.62
2018-09-17T04:09:53.529Z,4.70
2018-09-17T04:12:21.193Z,4.53
2018-09-17T04:14:48.892Z,5.17
2018-09-17T04:17:16.560Z,4.55
2018-09-17T04:19:44.207Z,5.03
2018-09-17T04:22:11.850Z,4.90
2018-09-17T04:24:39.529Z,4.95
2018-09-17T04:27:07.144Z,4.72
2018-09-17T04:29:34.892Z,4.60
2018-09-17T04:32:02.604Z,4.58
2018-09-17T04:34:30.254Z,5.55
2018-09-17T04:36:57.927Z,5.05
2018-09-17T04:39:26.480Z,4.80
2018-09-17T04:41:54.148Z,4.75
2018-09-17T04:44:21.810Z,5.40
2018-09-17T04:46:49.489Z,5.25
2018-09-17T04:49:17.119Z,4.97
2018-09-17T04:51:44.792Z,5.35
2018-09-17T04:54:12.423Z,5.20
2018-09-17T04:56:40.129Z,4.87
2018-09-17T04:59:07.787Z,5.05
2018-09-17T05:01:35.435Z,5.55
2018-09-17T05:04:03.177Z,6.12
2018-09-17T05:06:30.814Z,5.40
2018-09-17T05:08:58.582Z,5.15
2018-09-17T05:11:26.223Z,4.92
2018-09-17T05:13:53.876Z,5.55
2018-09-17T05:16:21.527Z,5.95
2018-09-17T05:18:49.167Z,5.87
2018-09-17T05:21:16.792Z,5.60
2018-09-17T05:23:44.404Z,6.03
2018-09-17T05:26:12.070Z,6.22
2018-09-17T05:28:39.694Z,5.70
2018-09-17T05:31:07.387Z,5.65
2018-09-17T05:33:35.040Z,5.85
2018-09-17T05:36:02.829Z,5.90
2018-09-17T05:38:30.518Z,5.92
2018-09-17T05:40:58.257Z,6.15
2018-09-17T05:43:25.938Z,5.92
2018-09-17T05:45:53.621Z,6.15
2018-09-17T05:48:21.344Z,6.15
2018-09-17T05:50:48.965Z,6.58
2018-09-17T05:53:16.585Z,6.60
2018-09-17T05:55:44.250Z,7.00
2018-09-17T05:58:11.863Z,6.80
2018-09-17T06:00:39.443Z,6.15
2018-09-17T06:03:07.046Z,6.37
2018-09-17T06:05:36.039Z,5.97
2018-09-17T06:08:03.781Z,6.17
2018-09-17T06:10:31.523Z,6.83
2018-09-17T06:12:59.217Z,7.40
2018-09-17T06:15:26.965Z,6.87
2018-09-17T06:17:54.592Z,7.10
2018-09-17T06:20:28.987Z,6.72
2018-09-17T06:22:56.617Z,27.85
2018-09-17T06:25:24.257Z,12.80
2018-09-17T06:27:51.866Z,10.15
2018-09-17T06:30:19.588Z,7.73
2018-09-17T06:32:47.248Z,9.13
2018-09-17T06:35:14.898Z,7.80
2018-09-17T06:37:42.533Z,8.33
2018-09-17T06:40:10.160Z,7.67
2018-09-17T06:42:37.768Z,8.07
2018-09-17T06:45:05.485Z,7.95
2018-09-17T06:47:33.326Z,8.45
2018-09-17T06:50:01.069Z,8.97
2018-09-17T06:52:30.356Z,8.10
2018-09-17T06:54:58.106Z,9.63
2018-09-17T06:57:25.784Z,10.73
2018-09-17T06:59:53.428Z,10.00
2018-09-17T07:02:21.049Z,8.70
2018-09-17T07:04:48.784Z,9.70
2018-09-17T07:07:16.411Z,8.93
2018-09-17T07:09:44.171Z,8.50
2018-09-17T07:12:11.858Z,9.70
2018-09-17T07:14:39.439Z,8.93
2018-09-17T07:17:07.123Z,8.63
2018-09-17T07:19:34.649Z,8.50
2018-09-17T07:22:02.379Z,8.47
2018-09-17T07:24:32.582Z,7.17
2018-09-17T07:27:00.322Z,7.50
2018-09-17T07:29:28.113Z,7.00
2018-09-17T07:31:55.948Z,7.00
2018-09-17T07:34:24.790Z,7.17
2018-09-17T07:36:52.496Z,7.00
2018-09-17T07:39:20.112Z,7.00
2018-09-17T07:41:48.116Z,7.10
2018-09-17T07:44:15.778Z,7.10
2018-09-17T07:46:44.177Z,7.40
2018-09-17T07:49:11.954Z,6.60
2018-09-17T07:51:39.686Z,6.50
2018-09-17T07:54:07.350Z,6.03
2018-09-17T07:56:35.111Z,6.53
2018-09-17T07:59:02.847Z,6.37
2018-09-17T08:01:30.534Z,5.87
2018-09-17T08:03:58.227Z,5.53
2018-09-17T08:06:30.431Z,6.40
2018-09-17T08:08:58.081Z,5.37
2018-09-17T08:11:25.877Z,6.50
2018-09-17T08:13:53.548Z,5.80
2018-09-17T08:16:21.201Z,5.17
2018-09-17T08:18:54.101Z,4.90
2018-09-17T08:21:21.794Z,4.30
2018-09-17T08:23:49.539Z,4.53
2018-09-17T08:26:17.301Z,4.27
2018-09-17T08:28:44.987Z,4.27
2018-09-17T08:31:17.247Z,3.90
2018-09-17T08:33:44.914Z,3.30
2018-09-17T08:36:12.576Z,3.63
2018-09-17T08:38:41.453Z,3.40
2018-09-17T08:41:09.266Z,3.07
2018-09-17T08:43:39.860Z,3.40
2018-09-17T08:46:07.551Z,2.80
2018-09-17T08:48:35.577Z,3.53
2018-09-17T08:51:03.323Z,3.80
2018-09-17T08:53:31.001Z,3.17
2018-09-17T08:56:09.509Z,3.07
2018-09-17T08:58:45.994Z,3.27
2018-09-17T09:01:19.458Z,3.33
2018-09-17T09:03:52.724Z,3.20
2018-09-17T09:06:24.929Z,2.63
2018-09-17T09:08:52.588Z,3.33
2018-09-17T09:11:24.855Z,3.10
2018-09-17T09:13:55.608Z,3.40
2018-09-17T09:16:24.000Z,3.50
2018-09-17T09:18:51.678Z,3.50
2018-09-17T09:21:19.448Z,3.37
2018-09-17T09:23:47.241Z,3.17
2018-09-17T09:26:14.902Z,3.90
2018-09-17T09:28:42.575Z,3.90
2018-09-17T09:31:10.294Z,3.70
2018-09-17T09:33:38.017Z,3.23
2018-09-17T09:36:05.687Z,3.30
2018-09-17T09:38:33.334Z,3.60
2018-09-17T09:41:01.128Z,3.80
2018-09-17T09:43:29.171Z,3.27
2018-09-17T09:45:56.853Z,3.53
2018-09-17T09:48:24.502Z,2.80
2018-09-17T09:50:52.442Z,3.63
2018-09-17T09:53:20.233Z,3.50
2018-09-17T09:55:53.023Z,3.33
2018-09-17T09:58:20.669Z,3.17
2018-09-17T10:00:53.864Z,3.43
2018-09-17T10:03:30.177Z,2.53
2018-09-17T10:06:00.264Z,3.17
2018-09-17T10:08:28.026Z,3.53
2018-09-17T10:11:01.476Z,2.50
2018-09-17T10:13:35.646Z,3.40
2018-09-17T10:16:09.146Z,3.47
2018-09-17T10:19:50.414Z,3.57
2018-09-17T10:22:19.920Z,2.80
2018-09-17T10:24:51.092Z,2.70
2018-09-17T10:27:18.962Z,2.80
2018-09-17T10:29:46.939Z,3.00
2018-09-17T10:32:14.791Z,2.60
2018-09-17T10:34:42.852Z,3.00
2018-09-17T10:37:11.047Z,2.70
2018-09-17T10:39:42.811Z,2.53
2018-09-17T10:42:10.759Z,2.30
2018-09-17T10:44:38.618Z,2.57
2018-09-17T10:47:06.542Z,2.80
2018-09-17T10:49:34.968Z,2.77
2018-09-17T10:52:05.972Z,2.53
2018-09-17T10:54:33.769Z,2.67
2018-09-17T10:57:01.791Z,2.47
2018-09-17T10:59:29.710Z,2.70
2018-09-17T11:01:57.642Z,2.33
2018-09-17T11:04:30.035Z,1.90
2018-09-17T11:06:58.482Z,2.13
2018-09-17T11:09:26.252Z,2.60
2018-09-17T11:11:54.110Z,2.47
2018-09-17T11:14:21.969Z,2.13
2018-09-17T11:16:55.113Z,2.40
2018-09-17T11:19:26.925Z,2.37
2018-09-17T11:21:54.556Z,2.50
2018-09-17T11:24:22.231Z,2.30
2018-09-17T11:26:50.454Z,2.27
2018-09-17T11:29:18.595Z,2.10
2018-09-17T11:34:19.413Z,2.30
2018-09-17T11:36:47.491Z,2.10
2018-09-17T11:39:15.412Z,3.60
2018-09-17T11:41:43.197Z,2.37
2018-09-17T11:44:11.091Z,2.00
2018-09-17T11:46:44.222Z,2.30
2018-09-17T11:49:12.210Z,2.43
2018-09-17T11:51:40.260Z,2.23
2018-09-17T11:54:08.261Z,2.00
2018-09-17T11:56:36.138Z,2.20
2018-09-17T11:59:04.143Z,2.03
2018-09-17T12:01:37.573Z,1.90
2018-09-17T12:04:12.041Z,1.90
2018-09-17T12:06:45.447Z,1.90
2018-09-17T12:09:13.185Z,1.97
2018-09-17T12:11:44.337Z,2.00
2018-09-17T12:14:11.998Z,1.73
2018-09-17T12:16:39.689Z,1.83
2018-09-17T12:19:07.347Z,1.80
2018-09-17T12:21:34.968Z,1.73
2018-09-17T12:24:02.806Z,1.60
2018-09-17T12:26:32.822Z,1.73
2018-09-17T12:29:00.564Z,1.80
2018-09-17T12:31:28.505Z,2.00
2018-09-17T12:33:56.276Z,1.90
2018-09-17T12:36:23.841Z,2.40
2018-09-17T12:38:55.507Z,2.00
2018-09-17T12:41:24.057Z,2.10
2018-09-17T12:43:51.816Z,2.20
2018-09-17T12:46:19.539Z,2.00
2018-09-17T12:48:47.207Z,2.30
2018-09-17T12:51:19.555Z,2.10
2018-09-17T12:53:47.301Z,1.77
2018-09-17T12:56:14.993Z,2.10
2018-09-17T12:58:42.649Z,2.10
2018-09-17T13:01:10.282Z,1.80
2018-09-17T13:03:42.752Z,2.13
2018-09-17T13:06:10.822Z,1.90
2018-09-17T13:08:38.387Z,2.03
2018-09-17T13:11:06.057Z,1.93
2018-09-17T13:13:33.787Z,2.00
2018-09-17T13:16:01.476Z,1.77
2018-09-17T13:18:31.930Z,1.87
2018-09-17T13:20:59.665Z,2.20
2018-09-17T13:23:27.366Z,2.30
2018-09-17T13:25:55.040Z,2.23
2018-09-17T13:28:22.767Z,1.73
2018-09-17T13:30:50.341Z,2.20
2018-09-17T13:33:25.210Z,1.70
2018-09-17T13:35:52.811Z,1.73
2018-09-17T13:38:20.541Z,2.00
2018-09-17T13:40:48.154Z,2.80
2018-09-17T13:43:15.804Z,2.17
2018-09-17T13:45:47.567Z,2.10
2018-09-17T13:48:15.219Z,2.10
2018-09-17T13:50:43.912Z,1.83
2018-09-17T13:53:11.555Z,1.90
2018-09-17T13:55:39.343Z,1.83
2018-09-17T13:58:07.035Z,2.10
2018-09-17T14:00:34.669Z,1.80
2018-09-17T14:03:02.494Z,1.60
2018-09-17T14:05:30.423Z,2.13
2018-09-17T14:07:58.068Z,2.00
2018-09-17T14:10:26.054Z,1.80
2018-09-17T14:12:53.775Z,1.93
2018-09-17T14:15:21.512Z,2.07
2018-09-17T14:17:49.122Z,2.50
2018-09-17T14:20:16.803Z,2.37
2018-09-17T14:22:46.527Z,2.17
2018-09-17T14:25:14.479Z,2.00
2018-09-17T14:27:42.544Z,1.90
2018-09-17T14:30:10.325Z,1.80
2018-09-17T14:32:43.826Z,1.70
2018-09-17T14:35:11.729Z,1.70
2018-09-17T14:37:39.443Z,1.60
2018-09-17T14:40:07.164Z,1.80
2018-09-17T14:42:34.810Z,2.27
2018-09-17T14:45:03.034Z,1.53
2018-09-17T14:47:30.763Z,2.00
2018-09-17T14:49:58.601Z,2.00
2018-09-17T14:52:26.398Z,1.87
2018-09-17T14:54:54.434Z,1.83
2018-09-17T14:57:22.172Z,2.33
2018-09-17T14:59:50.225Z,1.50
2018-09-17T15:02:17.957Z,1.80
2018-09-17T15:04:45.590Z,1.70
2018-09-17T15:07:13.304Z,2.07
2018-09-17T15:09:40.985Z,1.87
2018-09-17T15:12:08.619Z,2.20
2018-09-17T15:14:36.534Z,2.07
2018-09-17T15:17:04.673Z,1.60
2018-09-17T15:19:32.384Z,1.80
2018-09-17T15:22:00.091Z,1.70
2018-09-17T15:24:27.717Z,2.10
2018-09-17T15:26:55.438Z,1.90
2018-09-17T15:29:23.325Z,1.80
2018-09-17T15:31:50.999Z,1.93
2018-09-17T15:34:18.840Z,1.83
2018-09-17T15:36:46.456Z,1.40
2018-09-17T15:41:48.956Z,1.80
2018-09-17T15:44:16.897Z,1.80
2018-09-17T15:46:44.540Z,2.03
2018-09-17T15:49:12.278Z,1.60
2018-09-17T15:51:39.925Z,1.60
2018-09-17T15:54:07.626Z,1.57
2018-09-17T15:56:35.252Z,1.90
2018-09-17T15:59:03.089Z,1.57
2018-09-17T16:01:30.818Z,2.10
2018-09-17T16:03:59.108Z,2.00
2018-09-17T16:06:28.174Z,2.10
2018-09-17T16:08:55.800Z,2.10
2018-09-17T16:11:23.590Z,1.97
2018-09-17T16:13:51.452Z,1.63
2018-09-17T16:16:19.171Z,1.70
2018-09-17T16:18:47.171Z,1.73
2018-09-17T16:21:14.850Z,1.80
2018-09-17T16:23:42.580Z,1.70
2018-09-17T16:26:10.312Z,1.67
2018-09-17T16:28:38.034Z,1.80
2018-09-17T16:31:05.733Z,2.13
2018-09-17T16:33:33.426Z,1.80
2018-09-17T16:36:01.045Z,2.03
2018-09-17T16:38:30.185Z,1.80
2018-09-17T16:40:57.808Z,1.60
2018-09-17T16:43:25.448Z,1.90
2018-09-17T16:45:53.409Z,1.60
2018-09-17T16:48:21.729Z,1.80
2018-09-17T16:50:49.554Z,2.20
2018-09-17T16:53:17.268Z,1.70
2018-09-17T16:55:45.010Z,1.53
2018-09-17T16:58:12.693Z,2.00
2018-09-17T17:00:40.416Z,2.00
2018-09-17T17:03:08.052Z,1.60
2018-09-17T17:05:35.786Z,1.93
2018-09-17T17:08:03.484Z,1.70
2018-09-17T17:10:31.151Z,1.90
2018-09-17T17:12:58.846Z,1.77
2018-09-17T17:15:26.479Z,2.00
2018-09-17T17:17:54.153Z,2.17
2018-09-17T17:20:22.253Z,2.20
2018-09-17T17:22:50.166Z,2.27
2018-09-17T17:25:17.817Z,2.33
2018-09-17T17:27:45.524Z,2.60
2018-09-17T17:30:14.419Z,2.70
2018-09-17T17:32:42.148Z,2.50
2018-09-17T17:35:10.125Z,2.47
2018-09-17T17:37:38.027Z,3.00
2018-09-17T17:40:05.996Z,2.97
2018-09-17T17:42:36.476Z,3.03
2018-09-17T17:45:04.758Z,3.50
2018-09-17T17:47:52.997Z,3.03
2018-09-17T17:50:20.734Z,3.53
2018-09-17T17:52:48.497Z,3.73
2018-09-17T17:55:16.188Z,4.93
2018-09-17T17:57:43.921Z,9.80
2018-09-17T18:00:11.539Z,17.63
2018-09-17T18:02:39.677Z,19.50
2018-09-17T18:05:07.424Z,17.77
2018-09-17T18:07:35.470Z,11.37
2018-09-17T18:10:04.663Z,8.30
2018-09-17T18:12:32.669Z,11.67
2018-09-17T18:15:00.555Z,9.37
2018-09-17T18:17:28.141Z,8.27
2018-09-17T18:19:56.685Z,7.57
2018-09-17T18:22:24.415Z,7.60
2018-09-17T18:24:52.077Z,8.10
2018-09-17T18:27:19.854Z,7.30
2018-09-17T18:29:47.474Z,6.90
2018-09-17T18:32:15.208Z,6.20
2018-09-17T18:34:43.272Z,6.33
2018-09-17T18:37:11.213Z,5.83
2018-09-17T18:39:40.789Z,6.60
2018-09-17T18:42:09.068Z,5.23
2018-09-17T18:44:36.840Z,5.23
2018-09-17T18:47:04.469Z,5.23
2018-09-17T18:49:32.382Z,5.17
2018-09-17T18:52:00.266Z,4.70
2018-09-17T18:54:28.052Z,4.63
2018-09-17T18:56:57.874Z,4.90
2018-09-17T18:59:25.525Z,4.50
2018-09-17T19:01:53.245Z,5.13
2018-09-17T19:04:21.341Z,5.17
2018-09-17T19:06:49.014Z,5.03
2018-09-17T19:09:16.726Z,5.10
2018-09-17T19:11:44.344Z,4.83
2018-09-17T19:14:19.446Z,4.80
2018-09-17T19:16:55.805Z,4.30
2018-09-17T19:19:26.274Z,3.90
2018-09-17T19:22:01.416Z,4.53
2018-09-17T19:24:30.970Z,3.97
2018-09-17T19:27:00.602Z,3.90
2018-09-17T19:29:28.436Z,3.90
2018-09-17T19:31:56.244Z,4.30
2018-09-17T19:34:23.866Z,4.13
2018-09-17T19:36:52.504Z,3.40
2018-09-17T19:39:25.813Z,3.73
2018-09-17T19:41:53.475Z,3.97
2018-09-17T19:44:21.302Z,3.50
2018-09-17T19:46:49.298Z,3.73
2018-09-17T19:49:17.041Z,3.30
2018-09-17T19:51:50.421Z,3.63
2018-09-17T19:54:18.179Z,3.60
2018-09-17T19:56:45.865Z,3.70
2018-09-17T19:59:19.226Z,4.00
2018-09-17T20:01:46.875Z,4.20
2018-09-17T20:04:20.183Z,4.47
2018-09-17T20:06:47.880Z,4.13
2018-09-17T20:09:15.509Z,3.57
2018-09-17T20:11:43.135Z,3.80
2018-09-17T20:14:10.737Z,3.60
2018-09-17T20:16:38.354Z,3.70
2018-09-17T20:19:06.063Z,4.00
2018-09-17T20:21:33.740Z,4.30
2018-09-17T20:24:01.360Z,4.20
2018-09-17T20:26:29.186Z,3.60
2018-09-17T20:28:56.883Z,3.40
2018-09-17T20:31:26.333Z,4.40
2018-09-17T20:33:54.074Z,4.30
2018-09-17T20:36:21.729Z,4.27
2018-09-17T20:38:49.583Z,3.77
2018-09-17T20:41:17.339Z,3.70
2018-09-17T20:43:45.075Z,4.20
2018-09-17T20:46:12.748Z,4.00
2018-09-17T20:48:40.608Z,3.90
2018-09-17T20:51:08.928Z,4.63
2018-09-17T20:53:36.705Z,4.60
2018-09-17T20:56:04.722Z,4.30
2018-09-17T20:58:32.388Z,4.37
2018-09-17T21:01:00.898Z,4.27
2018-09-17T21:03:29.124Z,4.00
2018-09-17T21:05:56.815Z,4.53
2018-09-17T21:08:24.480Z,4.90
2018-09-17T21:10:52.254Z,5.30
2018-09-17T21:13:20.120Z,5.17
2018-09-17T21:15:47.926Z,4.60
2018-09-17T21:18:15.865Z,4.53
2018-09-17T21:20:43.560Z,5.33
2018-09-17T21:23:11.364Z,4.80
2018-09-17T21:25:39.490Z,5.73
2018-09-17T21:28:07.237Z,4.97
2018-09-17T21:30:35.102Z,4.90
2018-09-17T21:33:02.938Z,5.40
2018-09-17T21:35:30.641Z,5.90
2018-09-17T21:37:59.297Z,5.27
2018-09-17T21:40:27.276Z,5.10
2018-09-17T21:42:55.240Z,5.13
2018-09-17T21:45:22.923Z,5.20
2018-09-17T21:47:50.620Z,4.53
2018-09-17T21:50:18.364Z,5.80
2018-09-17T21:52:46.116Z,5.03
2018-09-17T21:55:13.865Z,4.83
2018-09-17T21:57:41.543Z,5.13
2018-09-17T22:00:09.644Z,4.73
2018-09-17T22:02:37.426Z,5.37
2018-09-17T22:05:05.295Z,4.93
2018-09-17T22:07:33.159Z,4.90
2018-09-17T22:10:00.922Z,5.50
2018-09-17T22:12:28.640Z,5.20
2018-09-17T22:14:57.184Z,5.37
2018-09-17T22:17:24.861Z,5.43
2018-09-17T22:19:52.811Z,5.40
2018-09-17T22:22:21.046Z,5.13
2018-09-17T22:24:48.931Z,5.73
2018-09-17T22:27:16.873Z,5.00
2018-09-17T22:29:44.532Z,5.00
2018-09-17T22:32:13.658Z,5.53
2018-09-17T22:34:48.286Z,5.10
2018-09-17T22:37:15.983Z,5.67
2018-09-17T22:39:43.859Z,5.07
2018-09-17T22:42:11.641Z,4.57
2018-09-17T22:44:39.577Z,5.47
2018-09-17T22:47:07.650Z,4.80
2018-09-17T22:49:35.478Z,4.40
2018-09-17T22:52:03.456Z,5.87
2018-09-17T22:54:31.444Z,4.60
2018-09-17T22:56:59.326Z,5.00
2018-09-17T22:59:27.451Z,4.33
2018-09-17T23:01:55.100Z,4.70
2018-09-17T23:04:22.737Z,4.30
2018-09-17T23:06:50.415Z,4.57
2018-09-17T23:09:18.088Z,4.13
2018-09-17T23:11:45.969Z,5.40
2018-09-17T23:14:13.587Z,5.00
2018-09-17T23:16:41.227Z,4.63
2018-09-17T23:19:08.951Z,4.33
2018-09-17T23:21:36.753Z,4.73
2018-09-17T23:24:04.414Z,4.90
2018-09-17T23:26:33.106Z,5.33
2018-09-17T23:29:00.816Z,5.13
2018-09-17T23:31:29.123Z,5.30
2018-09-17T23:33:56.785Z,4.50
2018-09-17T23:36:24.407Z,5.07
2018-09-17T23:38:52.170Z,4.57
2018-09-17T23:41:20.071Z,5.13
2018-09-17T23:43:47.863Z,4.80
2018-09-17T23:46:15.747Z,5.63
2018-09-17T23:48:44.804Z,5.50
2018-09-17T23:51:12.493Z,4.87
2018-09-17T23:53:40.270Z,4.80
2018-09-17T23:56:09.702Z,4.87
2018-09-17T23:58:37.716Z,5.40
